Whale Watcher II — WDB8211 — position and weather

sailwx.info

Track history (hours):
 
Tides and Currents Weather Stations Pressure Air Temp Water Temp Dewpoint Dewpoint Depression Visibility Wind Speed Wind Dir Waves Ship Positions

Whale Watcher II

Owner: Ronald L. Robbins LLC, Cape May, NJ. More information available from US FCC via Universal Licensing System and Coast Guard Vessel Documentation Center.

Last reported at 2016-May-25 18:33 UTC. Time now 2016-May-25 18:51 UTC.
Position N 29°57' W 090°01'.

Length 22 m.

Type: Towing. MMSI: 367011790.

Date/timePositionNaut miles runAvg speedWind from/ knotsBaromVisibWave heightAir tempDewpointWater temp
2016-May-25 18:33N 29°57' W 090°01'0 0.0
2016-May-25 17:33N 29°57' W 090°01'0 0.0
2016-May-25 16:33N 29°57' W 090°01'0 0.0
2016-May-25 15:33N 29°57' W 090°01'0 0.0
2016-May-25 14:33N 29°57' W 090°01'0 0.0
2016-May-25 13:33N 29°57' W 090°01'0 0.0
2016-May-25 12:33N 29°57' W 090°01'0 0.0
2016-May-25 11:33N 29°57' W 090°01'3 2.6
2016-May-25 10:33N 29°56' W 090°03'0 0.2
2016-May-25 09:33N 29°56' W 090°04'0 0.2
2016-May-25 08:33N 29°55' W 090°04'0 0.0
2016-May-25 07:33N 29°55' W 090°04'0 0.1
2016-May-25 06:33N 29°55' W 090°04'0 0.4
2016-May-25 05:33N 29°56' W 090°03'0 0.3
2016-May-25 04:33N 29°55' W 090°04'0 0.0
2016-May-25 03:33N 29°55' W 090°04'0 0.0
2016-May-25 02:33N 29°55' W 090°04'0 0.2
2016-May-25 01:33N 29°55' W 090°04'0 0.5
2016-May-25 00:33N 29°56' W 090°03'0 0.0
2016-May-24 23:33N 29°56' W 090°03'0 0.3
2016-May-24 22:33N 29°56' W 090°04'0 0.1
2016-May-24 21:33N 29°55' W 090°04'1 1.2
2016-May-24 20:33N 29°57' W 090°03'4 3.6
2016-May-24 19:33N 29°56' W 089°59'5 4.5
2016-May-24 18:33N 29°54' W 089°55'1 0.1
2016-May-24 11:10N 29°55' W 089°55'6 9.8
2016-May-24 10:33N 29°57' W 090°01'3 2.7
2016-May-24 09:33N 29°56' W 090°04'1 0.9
2016-May-24 08:33N 29°55' W 090°04'8 7.3
2016-May-24 07:28N 29°57' W 090°13'2 0.3
2016-May-23 23:33N 29°56' W 090°11'4 3.5
2016-May-23 22:25N 29°55' W 090°07'3 3.2
2016-May-23 21:33N 29°55' W 090°04'2 2.2
2016-May-23 20:33N 29°57' W 090°02'5 5.5
2016-May-23 19:33N 29°55' W 089°56'3 2.9
2016-May-23 18:33N 29°52' W 089°57'2 0.2
2016-May-23 08:24N 29°51' W 089°59'0 0.1
2016-May-23 07:33N 29°51' W 089°59'0 0.0
2016-May-23 06:30N 29°51' W 089°59'6 0.2
2016-May-22 05:33N 29°45' W 090°01'11 1.7
2016-May-21 23:23N 29°56' W 090°04'12 0.6
2016-May-21 03:12N 29°44' W 089°60'7 8.8
2016-May-21 02:26N 29°51' W 089°59'5 6.2
2016-May-21 01:33N 29°55' W 089°55'7 7.5
2016-May-21 00:33N 29°56' W 090°04'0 0.0
2016-May-20 23:33N 29°56' W 090°04'4 3.5
2016-May-20 22:33N 29°55' W 090°07'0 0.0
2016-May-20 21:33N 29°55' W 090°07'0 0.0
2016-May-20 20:33N 29°55' W 090°07'0 0.0
2016-May-20 19:28N 29°55' W 090°07'0 0.0
2016-May-20 18:33N 29°55' W 090°07'0 0.0
2016-May-20 17:33N 29°55' W 090°07'0 0.0
2016-May-20 15:31N 29°55' W 090°07'0 0.5
2016-May-20 14:33N 29°55' W 090°08'0 0.0
2016-May-20 13:33N 29°55' W 090°08'0 0.3
2016-May-20 12:33N 29°55' W 090°08'0 0.1
2016-May-20 11:31N 29°55' W 090°08'2 1.8
2016-May-20 10:33N 29°55' W 090°06'2 2.1
2016-May-20 09:33N 29°56' W 090°03'0 0.0
2016-May-20 08:33N 29°56' W 090°03'0 0.0
2016-May-20 07:33N 29°56' W 090°03'0 0.3
2016-May-20 06:33N 29°56' W 090°04'0 0.0
2016-May-20 05:33N 29°56' W 090°04'0 0.1
2016-May-20 03:33N 29°56' W 090°03'1 0.6
2016-May-20 02:33N 29°55' W 090°04'0 0.0
2016-May-20 01:33N 29°55' W 090°04'4 4.0
2016-May-20 00:33N 29°55' W 090°08'3 0.2
2016-May-19 06:32N 29°56' W 090°12'3 3.2
2016-May-19 05:33N 29°56' W 090°08'3 3.3
2016-May-19 04:33N 29°55' W 090°05'1 1.4
2016-May-19 03:33N 29°56' W 090°04'1 0.9
2016-May-19 02:33N 29°57' W 090°03'2 2.0
2016-May-19 01:33N 29°57' W 090°01'4 4.0
2016-May-19 00:33N 29°55' W 089°57'3 0.3
2016-May-18 13:19N 29°53' W 089°54'2 2.0
2016-May-18 12:33N 29°52' W 089°56'0 0.3
2016-May-18 11:33N 29°52' W 089°56'0 0.0
2016-May-18 10:33N 29°52' W 089°56'3 2.4
2016-May-18 09:25N 29°54' W 089°55'8 9.5
2016-May-18 08:33N 29°57' W 090°03'2 1.9
2016-May-18 07:33N 29°55' W 090°04'0 0.0
2016-May-18 06:33N 29°55' W 090°04'0 0.2
2016-May-18 05:33N 29°55' W 090°04'0 0.0
2016-May-18 04:33N 29°55' W 090°04'4 4.1
2016-May-18 03:33N 29°57' W 090°08'1 1.2
2016-May-18 02:33N 29°58' W 090°09'1 0.7
2016-May-18 01:33N 29°57' W 090°09'3 2.9
2016-May-18 00:33N 29°54' W 090°07'0 0.0
2016-May-17 23:33N 29°54' W 090°07'1 0.7
2016-May-17 22:33N 29°54' W 090°06'3 2.6
2016-May-17 21:33N 29°55' W 090°04'0 0.1
2016-May-17 20:33N 29°55' W 090°04'0 0.0
2016-May-17 19:33N 29°55' W 090°04'0 0.0
2016-May-17 18:33N 29°55' W 090°04'0 0.0
2016-May-17 17:33N 29°55' W 090°04'0 0.3
2016-May-17 16:34N 29°56' W 090°03'2 1.9
2016-May-17 15:33N 29°57' W 090°02'4 4.4
2016-May-17 14:33N 29°55' W 089°57'4 4.0
2016-May-17 13:33N 29°52' W 089°55'1 1.4
2016-May-17 12:33N 29°53' W 089°56'0 0.0
2016-May-17 11:33N 29°53' W 089°56'0 0.0
2016-May-17 10:34N 29°53' W 089°56'0 0.0
2016-May-17 09:33N 29°53' W 089°56'0 0.0
2016-May-17 08:33N 29°53' W 089°56'0 0.0
2016-May-17 07:34N 29°53' W 089°56'0 0.0
2016-May-17 06:34N 29°53' W 089°56'0 0.0
2016-May-17 05:34N 29°53' W 089°56'0 0.0
2016-May-17 04:33N 29°53' W 089°56'0 0.0
2016-May-17 03:34N 29°53' W 089°56'0 0.5
2016-May-17 02:30N 29°52' W 089°56'5 5.7
2016-May-17 01:33N 29°56' W 089°60'3 3.3
2016-May-17 00:34N 29°55' W 090°04'0 0.0
2016-May-16 23:34N 29°55' W 090°04'0 0.0
2016-May-16 22:34N 29°55' W 090°04'0 0.0
2016-May-16 21:34N 29°55' W 090°04'0 0.0
2016-May-16 20:33N 29°55' W 090°04'0 0.0
2016-May-16 19:33N 29°55' W 090°04'0 0.0
2016-May-16 18:33N 29°55' W 090°04'0 0.0
2016-May-16 17:34N 29°55' W 090°04'0 0.0
2016-May-16 16:34N 29°55' W 090°04'0 0.0
2016-May-16 15:34N 29°55' W 090°04'0 0.0
2016-May-16 14:34N 29°55' W 090°04'0 0.0
2016-May-16 13:33N 29°55' W 090°04'0 0.0
2016-May-16 12:33N 29°55' W 090°04'0 0.0
2016-May-16 11:34N 29°55' W 090°04'0 0.0
2016-May-16 10:33N 29°55' W 090°04'0 0.0
2016-May-16 09:33N 29°55' W 090°04'3 3.3
2016-May-16 08:34N 29°54' W 090°07'0 0.0
2016-May-16 07:34N 29°54' W 090°07'0 0.0
2016-May-16 06:33N 29°54' W 090°07'0 0.0
2016-May-16 05:29N 29°54' W 090°07'0 0.0
2016-May-16 04:33N 29°54' W 090°07'0 0.0
2016-May-16 03:34N 29°54' W 090°07'0 0.0
2016-May-16 02:34N 29°54' W 090°07'0 0.3
2016-May-16 01:34N 29°54' W 090°07'3 2.9
2016-May-16 00:34N 29°55' W 090°04'0 0.0
2016-May-15 23:33N 29°55' W 090°04'4 4.3
2016-May-15 22:34N 29°57' W 090°08'  
Track history (hours):
 
Tides and Currents Weather Stations Pressure Air Temp Water Temp Dewpoint Dewpoint Depression Visibility Wind Speed Wind Dir Waves Ship Positions

Whale Watcher II

Owner: Ronald L. Robbins LLC, Cape May, NJ. More information available from US FCC via Universal Licensing System and Coast Guard Vessel Documentation Center.

Last reported at 2016-May-25 18:33 UTC. Time now 2016-May-25 18:51 UTC.
Position N 29°57' W 090°01'.

Length 22 m.

Type: Towing. MMSI: 367011790.

Date/timePositionNaut miles runAvg speedWind from/ knotsBaromVisibWave heightAir tempDewpointWater temp
2016-May-25 18:33N 29°57' W 090°01'0 0.0
2016-May-25 17:33N 29°57' W 090°01'0 0.0
2016-May-25 16:33N 29°57' W 090°01'0 0.0
2016-May-25 15:33N 29°57' W 090°01'0 0.0
2016-May-25 14:33N 29°57' W 090°01'0 0.0
2016-May-25 13:33N 29°57' W 090°01'0 0.0
2016-May-25 12:33N 29°57' W 090°01'0 0.0
2016-May-25 11:33N 29°57' W 090°01'3 2.6
2016-May-25 10:33N 29°56' W 090°03'0 0.2
2016-May-25 09:33N 29°56' W 090°04'0 0.2
2016-May-25 08:33N 29°55' W 090°04'0 0.0
2016-May-25 07:33N 29°55' W 090°04'0 0.1
2016-May-25 06:33N 29°55' W 090°04'0 0.4
2016-May-25 05:33N 29°56' W 090°03'0 0.3
2016-May-25 04:33N 29°55' W 090°04'0 0.0
2016-May-25 03:33N 29°55' W 090°04'0 0.0
2016-May-25 02:33N 29°55' W 090°04'0 0.2
2016-May-25 01:33N 29°55' W 090°04'0 0.5
2016-May-25 00:33N 29°56' W 090°03'0 0.0
2016-May-24 23:33N 29°56' W 090°03'0 0.3
2016-May-24 22:33N 29°56' W 090°04'0 0.1
2016-May-24 21:33N 29°55' W 090°04'1 1.2
2016-May-24 20:33N 29°57' W 090°03'4 3.6
2016-May-24 19:33N 29°56' W 089°59'5 4.5
2016-May-24 18:33N 29°54' W 089°55'1 0.1
2016-May-24 11:10N 29°55' W 089°55'6 9.8
2016-May-24 10:33N 29°57' W 090°01'3 2.7
2016-May-24 09:33N 29°56' W 090°04'1 0.9
2016-May-24 08:33N 29°55' W 090°04'8 7.3
2016-May-24 07:28N 29°57' W 090°13'2 0.3
2016-May-23 23:33N 29°56' W 090°11'4 3.5
2016-May-23 22:25N 29°55' W 090°07'3 3.2
2016-May-23 21:33N 29°55' W 090°04'2 2.2
2016-May-23 20:33N 29°57' W 090°02'5 5.5
2016-May-23 19:33N 29°55' W 089°56'3 2.9
2016-May-23 18:33N 29°52' W 089°57'2 0.2
2016-May-23 08:24N 29°51' W 089°59'0 0.1
2016-May-23 07:33N 29°51' W 089°59'0 0.0
2016-May-23 06:30N 29°51' W 089°59'6 0.2
2016-May-22 05:33N 29°45' W 090°01'11 1.7
2016-May-21 23:23N 29°56' W 090°04'12 0.6
2016-May-21 03:12N 29°44' W 089°60'7 8.8
2016-May-21 02:26N 29°51' W 089°59'5 6.2
2016-May-21 01:33N 29°55' W 089°55'7 7.5
2016-May-21 00:33N 29°56' W 090°04'0 0.0
2016-May-20 23:33N 29°56' W 090°04'4 3.5
2016-May-20 22:33N 29°55' W 090°07'0 0.0
2016-May-20 21:33N 29°55' W 090°07'0 0.0
2016-May-20 20:33N 29°55' W 090°07'0 0.0
2016-May-20 19:28N 29°55' W 090°07'0 0.0
2016-May-20 18:33N 29°55' W 090°07'0 0.0
2016-May-20 17:33N 29°55' W 090°07'0 0.0
2016-May-20 15:31N 29°55' W 090°07'0 0.5
2016-May-20 14:33N 29°55' W 090°08'0 0.0
2016-May-20 13:33N 29°55' W 090°08'0 0.3
2016-May-20 12:33N 29°55' W 090°08'0 0.1
2016-May-20 11:31N 29°55' W 090°08'2 1.8
2016-May-20 10:33N 29°55' W 090°06'2 2.1
2016-May-20 09:33N 29°56' W 090°03'0 0.0
2016-May-20 08:33N 29°56' W 090°03'0 0.0
2016-May-20 07:33N 29°56' W 090°03'0 0.3
2016-May-20 06:33N 29°56' W 090°04'0 0.0
2016-May-20 05:33N 29°56' W 090°04'0 0.1
2016-May-20 03:33N 29°56' W 090°03'1 0.6
2016-May-20 02:33N 29°55' W 090°04'0 0.0
2016-May-20 01:33N 29°55' W 090°04'4 4.0
2016-May-20 00:33N 29°55' W 090°08'3 0.2
2016-May-19 06:32N 29°56' W 090°12'3 3.2
2016-May-19 05:33N 29°56' W 090°08'3 3.3
2016-May-19 04:33N 29°55' W 090°05'1 1.4
2016-May-19 03:33N 29°56' W 090°04'1 0.9
2016-May-19 02:33N 29°57' W 090°03'2 2.0
2016-May-19 01:33N 29°57' W 090°01'4 4.0
2016-May-19 00:33N 29°55' W 089°57'3 0.3
2016-May-18 13:19N 29°53' W 089°54'2 2.0
2016-May-18 12:33N 29°52' W 089°56'0 0.3
2016-May-18 11:33N 29°52' W 089°56'0 0.0
2016-May-18 10:33N 29°52' W 089°56'3 2.4
2016-May-18 09:25N 29°54' W 089°55'8 9.5
2016-May-18 08:33N 29°57' W 090°03'2 1.9
2016-May-18 07:33N 29°55' W 090°04'0 0.0
2016-May-18 06:33N 29°55' W 090°04'0 0.2
2016-May-18 05:33N 29°55' W 090°04'0 0.0
2016-May-18 04:33N 29°55' W 090°04'4 4.1
2016-May-18 03:33N 29°57' W 090°08'1 1.2
2016-May-18 02:33N 29°58' W 090°09'1 0.7
2016-May-18 01:33N 29°57' W 090°09'3 2.9
2016-May-18 00:33N 29°54' W 090°07'0 0.0
2016-May-17 23:33N 29°54' W 090°07'1 0.7
2016-May-17 22:33N 29°54' W 090°06'3 2.6
2016-May-17 21:33N 29°55' W 090°04'0 0.1
2016-May-17 20:33N 29°55' W 090°04'0 0.0
2016-May-17 19:33N 29°55' W 090°04'0 0.0
2016-May-17 18:33N 29°55' W 090°04'0 0.0
2016-May-17 17:33N 29°55' W 090°04'0 0.3
2016-May-17 16:34N 29°56' W 090°03'2 1.9
2016-May-17 15:33N 29°57' W 090°02'4 4.4
2016-May-17 14:33N 29°55' W 089°57'4 4.0
2016-May-17 13:33N 29°52' W 089°55'1 1.4
2016-May-17 12:33N 29°53' W 089°56'0 0.0
2016-May-17 11:33N 29°53' W 089°56'0 0.0
2016-May-17 10:34N 29°53' W 089°56'0 0.0
2016-May-17 09:33N 29°53' W 089°56'0 0.0
2016-May-17 08:33N 29°53' W 089°56'0 0.0
2016-May-17 07:34N 29°53' W 089°56'0 0.0
2016-May-17 06:34N 29°53' W 089°56'0 0.0
2016-May-17 05:34N 29°53' W 089°56'0 0.0
2016-May-17 04:33N 29°53' W 089°56'0 0.0
2016-May-17 03:34N 29°53' W 089°56'0 0.5
2016-May-17 02:30N 29°52' W 089°56'5 5.7
2016-May-17 01:33N 29°56' W 089°60'3 3.3
2016-May-17 00:34N 29°55' W 090°04'0 0.0
2016-May-16 23:34N 29°55' W 090°04'0 0.0
2016-May-16 22:34N 29°55' W 090°04'0 0.0
2016-May-16 21:34N 29°55' W 090°04'0 0.0
2016-May-16 20:33N 29°55' W 090°04'0 0.0
2016-May-16 19:33N 29°55' W 090°04'0 0.0
2016-May-16 18:33N 29°55' W 090°04'0 0.0
2016-May-16 17:34N 29°55' W 090°04'0 0.0
2016-May-16 16:34N 29°55' W 090°04'0 0.0
2016-May-16 15:34N 29°55' W 090°04'0 0.0
2016-May-16 14:34N 29°55' W 090°04'0 0.0
2016-May-16 13:33N 29°55' W 090°04'0 0.0
2016-May-16 12:33N 29°55' W 090°04'0 0.0
2016-May-16 11:34N 29°55' W 090°04'0 0.0
2016-May-16 10:33N 29°55' W 090°04'0 0.0
2016-May-16 09:33N 29°55' W 090°04'3 3.3
2016-May-16 08:34N 29°54' W 090°07'0 0.0
2016-May-16 07:34N 29°54' W 090°07'0 0.0
2016-May-16 06:33N 29°54' W 090°07'0 0.0
2016-May-16 05:29N 29°54' W 090°07'0 0.0
2016-May-16 04:33N 29°54' W 090°07'0 0.0
2016-May-16 03:34N 29°54' W 090°07'0 0.0
2016-May-16 02:34N 29°54' W 090°07'0 0.3
2016-May-16 01:34N 29°54' W 090°07'3 2.9
2016-May-16 00:34N 29°55' W 090°04'0 0.0
2016-May-15 23:33N 29°55' W 090°04'4 4.3
2016-May-15 22:34N 29°57' W 090°08'  

Dump ship's entire track history